Lewisport, KY

5:04 AM CST on March 01, 2015 (GMT -0600)
Henderson City-County | Change Station
CLOSE
Current Station
Airport
Location: Henderson,
Elevation: 384 ft
Nearby Weather Stations
Active Advisory: Special Statement

Elev 384 ft 37.81 °N, 87.68 °W | Updated 9 minutes ago

Overcast
Overcast
32 °F
Feels Like 24 °F
N
9
Wind Variable Wind from ESE

Today
High -- | Low -- °F
--% Chance of Precip.
Yesterday
High -- | Low -- °F
Precip. -- in
6:19 AM 5:41 PM
Waxing Gibbous, 84% visible
Pressure 30.37 in
Visibility 10.0 miles
Clouds Overcast 6000 ft
Windchill 24 °F
Dew Point 23 °F
Humidity 69%
Rainfall 0.00 in
Snow Depth Not available.
UV 0 out of 12
Pollen .20 out of 12
Air Quality Not available.
Flu Activity Not available.
METAR KEHR 011055Z AUTO 12008KT 10SM OVC060 00/M05 A3037 RMK AO1

More Conditions Fewer Conditions

Pressure 30.37 in
Visibility 10.0 miles
Clouds Overcast 6000 ft
Windchill 24 °F
Dew Point 23 °F
Humidity 69%
Rainfall 0.00 in
Snow Depth Not available.
UV 0 out of 12
Pollen .20 out of 12
Air Quality Not available.
Flu Activity Not available.
METAR KEHR 011055Z AUTO 12008KT 10SM OVC060 00/M05 A3037 RMK AO1

More Conditions Fewer Conditions

10-Day Weather Forecast

Almanac

Astronomy

Mar. 01, 2015 Rise Set
Actual Time
Civil Twilight
Nautical Twilight
Astronomical Twilight
Moon
Length of Visible Light
Length of Day
Tomorrow will be .
, % of the Moon is Illuminated

Today's Extremes

State Highs State Lows

Community

WunderPhotos

Upload Photos

1,801,359 photos uploaded!

WunderBlogs® & News

Nearby

Air Quality

  Air Quality AQ Index Pollutant
Not available.

Snow Depth

Station Depth Elevation

Earthquake Activity

City Distance Mag. Time & Date
Minimum magnitude displayed is 2.5.

Coastal Water Temperatures

Place Temperature

Nearby Weather Stations

Special Statement
Statement as of 3:49 AM CST on March 01, 2015

... A light wintry mix possible this morning...

A light wintry mix of snow... sleet... or freezing rain is possible
early this morning... which could result in slick spots on area
roadways. Temperatures are expected to rise above freezing later
this morning changing any frozen precipitation to all rain. A
light coating of snow and ice could make for a few slick spots on
roads this morning... especially on any untreated... secondary
surface.